Hampden Station, Pennsylvania
Current Conditions -  °F | °C
As of 8:56 AM on Sunday 21 Dec 2014 (Local Time) from KCXY Reporting Station
Haze Haze  
Wind Chill: 28°   Ceiling: 3000
Heat Index: 28°   Visibility: 6mi
Dew Point: 22°   Wind: 3mph
Humidity: 78%   Direction: 280°W
Pressure: 30.35"   Gusts: NA
Location:  40.2485°N, 77.0142°W
Report Text: KCXY 211356Z 28003KT 6SM HZ OVC030 M02/M06 A3035 RMK AO2 SLP283 T10221056
Loading
Personal Weather Stations






























Interactive Weather Map New forecast layout! Learn more

10-Day Weather Forecast

Advertisements
Track Severe Weather on mobile